createdAt,value
2022-09-07T00:01:05.936Z,92.17
2022-09-07T00:03:34.360Z,92.19
2022-09-07T00:06:07.828Z,92.32
2022-09-07T00:08:35.994Z,91.43
2022-09-07T00:11:06.140Z,92.25
2022-09-07T00:13:36.448Z,92.04
2022-09-07T00:16:10.201Z,91.96
2022-09-07T00:18:40.340Z,91.88
2022-09-07T00:21:12.761Z,91.87
2022-09-07T00:23:40.504Z,91.60
2022-09-07T00:26:11.573Z,91.93
2022-09-07T00:28:39.641Z,91.74
2022-09-07T00:31:19.063Z,92.03
2022-09-07T00:33:49.156Z,91.87
2022-09-07T00:36:18.547Z,91.97
2022-09-07T00:38:46.628Z,92.22
2022-09-07T00:41:15.026Z,92.33
2022-09-07T00:43:46.935Z,92.26
2022-09-07T00:46:26.886Z,92.28
2022-09-07T00:49:08.984Z,92.22
2022-09-07T00:51:42.268Z,92.14
2022-09-07T00:54:15.539Z,92.21
2022-09-07T00:56:45.692Z,91.93
2022-09-07T00:59:19.662Z,91.95
2022-09-07T01:01:47.551Z,92.09
2022-09-07T01:04:16.346Z,91.99
2022-09-07T01:06:44.456Z,91.73
2022-09-07T01:09:16.876Z,91.83
2022-09-07T01:11:50.868Z,92.16
2022-09-07T01:14:23.090Z,92.05
2022-09-07T01:16:59.614Z,92.09
2022-09-07T01:19:27.178Z,91.69
2022-09-07T01:22:35.503Z,91.67
2022-09-07T01:25:11.011Z,91.65
2022-09-07T01:27:47.657Z,91.25
2022-09-07T01:30:19.537Z,91.40
2022-09-07T01:32:56.517Z,91.73
2022-09-07T01:35:39.120Z,91.50
2022-09-07T01:38:12.630Z,91.83
2022-09-07T01:40:57.495Z,91.60
2022-09-07T01:43:44.319Z,91.90
2022-09-07T01:46:34.809Z,91.63
2022-09-07T01:49:19.422Z,91.51
2022-09-07T01:51:55.488Z,92.05
2022-09-07T01:54:35.390Z,91.86
2022-09-07T01:57:08.351Z,92.20
2022-09-07T01:59:44.729Z,91.72
2022-09-07T02:02:18.211Z,92.26
2022-09-07T02:04:55.082Z,92.04
2022-09-07T02:07:28.883Z,92.03
2022-09-07T02:10:02.780Z,91.68
2022-09-07T02:12:40.593Z,91.99
2022-09-07T02:15:20.466Z,91.54
2022-09-07T02:17:58.633Z,92.33
2022-09-07T02:20:32.186Z,91.89
2022-09-07T02:23:04.782Z,91.72
2022-09-07T02:25:45.369Z,91.64
2022-09-07T02:28:17.817Z,92.36
2022-09-07T02:30:45.939Z,91.74
2022-09-07T02:33:13.869Z,91.61
2022-09-07T02:35:41.618Z,92.14
2022-09-07T02:38:09.253Z,91.92
2022-09-07T02:40:36.837Z,91.70
2022-09-07T02:43:07.788Z,91.34
2022-09-07T02:46:12.753Z,91.85
2022-09-07T02:48:56.382Z,91.26
2022-09-07T02:51:29.709Z,91.04
2022-09-07T02:54:12.304Z,91.63
2022-09-07T02:56:52.275Z,91.61
2022-09-07T02:59:49.146Z,91.58
2022-09-07T03:02:43.397Z,91.46
2022-09-07T03:05:36.820Z,91.76
2022-09-07T03:08:11.907Z,91.59
2022-09-07T03:10:41.100Z,91.73
2022-09-07T03:13:09.131Z,92.07
2022-09-07T03:15:36.678Z,91.92
2022-09-07T03:18:04.391Z,91.90
2022-09-07T03:20:31.917Z,92.03
2022-09-07T03:22:59.535Z,92.34
2022-09-07T03:25:27.045Z,92.69
2022-09-07T03:27:54.652Z,92.68
2022-09-07T03:30:22.165Z,93.19
2022-09-07T03:32:49.848Z,93.31
2022-09-07T03:35:17.875Z,92.90
2022-09-07T03:37:45.425Z,93.22
2022-09-07T03:40:14.960Z,93.25
2022-09-07T03:42:43.167Z,93.20
2022-09-07T03:45:11.201Z,93.04
2022-09-07T03:47:39.219Z,92.88
2022-09-07T03:50:07.737Z,93.21
2022-09-07T03:52:36.349Z,93.19
2022-09-07T03:55:05.076Z,92.94
2022-09-07T03:57:32.633Z,93.14
2022-09-07T04:00:00.223Z,92.84
2022-09-07T04:02:27.994Z,93.29
2022-09-07T04:04:55.552Z,92.85
2022-09-07T04:07:23.142Z,92.95
2022-09-07T04:09:51.527Z,93.08
2022-09-07T04:12:19.119Z,93.33
2022-09-07T04:14:46.673Z,93.11
2022-09-07T04:17:14.291Z,93.17
2022-09-07T04:19:41.879Z,93.20
2022-09-07T04:22:09.423Z,93.32
2022-09-07T04:24:37.446Z,93.11
2022-09-07T04:27:04.975Z,93.35
2022-09-07T04:29:32.460Z,93.00
2022-09-07T04:32:00.094Z,93.22
2022-09-07T04:34:27.640Z,93.47
2022-09-07T04:36:55.179Z,93.15
2022-09-07T04:39:23.067Z,92.93
2022-09-07T04:41:50.598Z,92.83
2022-09-07T04:44:18.132Z,93.05
2022-09-07T04:46:45.752Z,92.96
2022-09-07T04:49:13.813Z,93.30
2022-09-07T04:51:42.989Z,93.23
2022-09-07T04:54:11.132Z,93.02
2022-09-07T04:56:38.625Z,93.29
2022-09-07T04:59:06.289Z,92.79
2022-09-07T05:01:33.946Z,93.09
2022-09-07T05:04:02.582Z,93.06
2022-09-07T05:06:32.222Z,92.94
2022-09-07T05:09:00.335Z,92.37
2022-09-07T05:11:29.875Z,92.55
2022-09-07T05:13:59.826Z,92.89
2022-09-07T05:16:28.108Z,92.79
2022-09-07T05:19:01.696Z,92.79
2022-09-07T05:21:32.122Z,92.89
2022-09-07T05:24:00.896Z,92.71
2022-09-07T05:26:31.541Z,92.34
2022-09-07T05:31:51.890Z,92.45
2022-09-07T05:34:35.018Z,92.26
2022-09-07T05:37:03.350Z,92.72
2022-09-07T05:39:31.477Z,92.60
2022-09-07T05:41:59.131Z,92.65
2022-09-07T05:47:10.127Z,92.26
2022-09-07T05:49:37.699Z,92.21
2022-09-07T05:52:09.690Z,92.44
2022-09-07T05:54:37.747Z,92.49
2022-09-07T05:57:05.552Z,91.96
2022-09-07T05:59:33.686Z,91.98
2022-09-07T06:02:01.527Z,92.75
2022-09-07T06:04:29.150Z,92.40
2022-09-07T06:07:20.623Z,92.56
2022-09-07T06:12:32.158Z,92.92
2022-09-07T06:15:01.624Z,92.40
2022-09-07T06:17:29.683Z,92.48
2022-09-07T06:19:57.806Z,92.21
2022-09-07T06:22:28.931Z,92.30
2022-09-07T06:24:59.108Z,92.29
2022-09-07T06:27:26.813Z,91.89
2022-09-07T06:29:54.642Z,91.99
2022-09-07T06:35:11.509Z,92.26
2022-09-07T06:37:39.352Z,92.43
2022-09-07T06:40:10.702Z,92.30
2022-09-07T06:42:38.852Z,92.21
2022-09-07T06:45:06.954Z,91.79
2022-09-07T06:47:34.851Z,92.30
2022-09-07T06:50:02.443Z,92.34
2022-09-07T06:55:17.864Z,91.56
2022-09-07T06:57:45.461Z,92.13
2022-09-07T07:00:13.580Z,91.95
2022-09-07T07:02:41.151Z,91.85
2022-09-07T07:05:09.294Z,91.98
2022-09-07T07:07:36.795Z,91.64
2022-09-07T07:10:04.768Z,91.84
2022-09-07T07:15:04.793Z,92.04
2022-09-07T07:17:32.416Z,91.68
2022-09-07T07:19:59.995Z,91.81
2022-09-07T07:22:45.996Z,91.44
2022-09-07T07:25:15.090Z,91.44
2022-09-07T07:27:43.011Z,91.51
2022-09-07T07:30:11.196Z,91.53
2022-09-07T07:32:39.398Z,91.37
2022-09-07T07:35:12.004Z,91.31
2022-09-07T07:37:39.825Z,91.15
2022-09-07T07:42:41.843Z,91.07
2022-09-07T07:47:58.620Z,90.57
2022-09-07T07:50:34.134Z,90.34
2022-09-07T07:55:49.816Z,90.14
2022-09-07T07:58:17.660Z,90.03
2022-09-07T08:01:00.699Z,89.98
2022-09-07T08:03:29.257Z,89.83
2022-09-07T08:05:57.020Z,89.54
2022-09-07T08:08:24.687Z,89.31
2022-09-07T08:10:53.069Z,88.86
2022-09-07T08:13:21.631Z,88.58
2022-09-07T08:15:49.306Z,88.58
2022-09-07T08:18:17.794Z,88.45
2022-09-07T08:20:45.316Z,88.13
2022-09-07T08:23:12.876Z,87.94
2022-09-07T08:25:50.675Z,87.73
2022-09-07T08:28:19.001Z,87.69
2022-09-07T08:30:46.506Z,87.48
2022-09-07T08:33:14.297Z,87.29
2022-09-07T08:35:41.840Z,86.71
2022-09-07T08:38:09.620Z,86.44
2022-09-07T08:40:38.702Z,86.13
2022-09-07T08:43:28.801Z,85.43
2022-09-07T08:46:04.830Z,85.42
2022-09-07T08:48:35.239Z,85.07
2022-09-07T08:51:24.585Z,84.68
2022-09-07T08:53:52.610Z,84.74
2022-09-07T08:56:39.302Z,84.62
2022-09-07T08:59:16.641Z,84.55
2022-09-07T09:02:27.000Z,84.60
2022-09-07T09:04:32.673Z,84.56
2022-09-07T09:07:10.061Z,84.05
2022-09-07T09:09:40.449Z,84.17
2022-09-07T09:12:32.353Z,84.00
2022-09-07T09:15:23.542Z,83.77
2022-09-07T09:18:14.945Z,83.61
2022-09-07T09:21:00.124Z,83.51
2022-09-07T09:23:34.475Z,83.52
2022-09-07T09:26:10.535Z,83.30
2022-09-07T09:28:39.809Z,82.43
2022-09-07T09:31:17.204Z,81.55
2022-09-07T09:34:05.032Z,82.00
2022-09-07T09:36:44.491Z,81.12
2022-09-07T09:39:35.231Z,80.28
2022-09-07T09:42:11.949Z,80.65
2022-09-07T09:44:40.225Z,80.73
2022-09-07T09:47:30.237Z,79.75
2022-09-07T09:50:01.569Z,79.91
2022-09-07T09:52:41.772Z,79.85
2022-09-07T09:55:34.275Z,79.48
2022-09-07T10:01:25.256Z,79.68
2022-09-07T10:06:26.584Z,79.09
2022-09-07T10:08:59.830Z,79.35
2022-09-07T10:12:07.652Z,78.69
2022-09-07T10:14:47.384Z,79.45
2022-09-07T10:17:25.589Z,79.28
2022-09-07T10:19:54.296Z,79.25
2022-09-07T10:22:30.110Z,78.71
2022-09-07T10:24:58.478Z,78.85
2022-09-07T10:27:34.253Z,78.21
2022-09-07T10:30:06.866Z,78.72
2022-09-07T10:32:37.406Z,78.40
2022-09-07T10:35:07.730Z,78.75
2022-09-07T10:37:51.472Z,78.78
2022-09-07T10:40:35.343Z,79.22
2022-09-07T10:43:21.411Z,79.05
2022-09-07T10:45:52.265Z,79.69
2022-09-07T10:48:35.836Z,79.40
2022-09-07T10:51:14.330Z,79.86
2022-09-07T10:53:45.158Z,79.50
2022-09-07T10:56:26.800Z,78.82
2022-09-07T10:59:03.908Z,78.95
2022-09-07T11:01:40.837Z,78.61
2022-09-07T11:04:26.960Z,78.14
2022-09-07T11:07:23.872Z,78.13
2022-09-07T11:10:13.068Z,76.88
2022-09-07T11:12:44.474Z,76.92
2022-09-07T11:15:23.775Z,76.25
2022-09-07T11:18:17.981Z,74.98
2022-09-07T11:20:55.100Z,76.09
2022-09-07T11:23:33.091Z,74.72
2022-09-07T11:26:39.628Z,73.39
2022-09-07T11:29:36.212Z,72.75
2022-09-07T11:32:07.428Z,71.86
2022-09-07T11:35:00.142Z,70.57
2022-09-07T11:37:46.603Z,70.91
2022-09-07T11:40:21.657Z,70.60
2022-09-07T11:42:59.764Z,69.81
2022-09-07T11:45:52.465Z,69.57
2022-09-07T11:48:31.047Z,70.38
2022-09-07T11:51:24.712Z,69.58
2022-09-07T11:54:02.362Z,69.40
2022-09-07T11:56:36.924Z,69.50
2022-09-07T11:59:07.038Z,70.10
2022-09-07T12:01:58.320Z,69.73
2022-09-07T12:04:44.298Z,69.91
2022-09-07T12:07:34.737Z,71.28
2022-09-07T12:10:28.274Z,71.13
2022-09-07T12:12:56.763Z,71.53
2022-09-07T12:16:05.772Z,69.06
2022-09-07T12:19:08.693Z,67.01
2022-09-07T12:21:42.405Z,66.58
2022-09-07T12:24:32.402Z,64.03
2022-09-07T12:27:01.368Z,64.90
2022-09-07T12:29:30.821Z,62.46
2022-09-07T12:32:52.610Z,60.74
2022-09-07T12:34:57.961Z,60.22
2022-09-07T12:37:40.071Z,58.76
2022-09-07T12:40:33.311Z,59.41
2022-09-07T12:43:13.141Z,59.85
2022-09-07T12:45:40.635Z,61.18
2022-09-07T12:48:17.132Z,61.50
2022-09-07T12:51:03.260Z,61.11
2022-09-07T12:56:26.201Z,61.72
2022-09-07T12:59:08.097Z,62.83
2022-09-07T13:01:51.555Z,64.02
2022-09-07T13:04:53.260Z,63.72
2022-09-07T13:08:07.207Z,63.91
2022-09-07T13:10:39.436Z,64.60
2022-09-07T13:16:29.537Z,64.31
2022-09-07T13:19:01.995Z,64.99
2022-09-07T13:21:33.144Z,65.44
2022-09-07T13:27:11.644Z,65.32
2022-09-07T13:29:46.668Z,64.81
2022-09-07T13:33:07.999Z,64.39
2022-09-07T13:35:25.436Z,63.98
2022-09-07T13:37:59.584Z,63.33
2022-09-07T13:40:30.332Z,63.22
2022-09-07T13:42:59.352Z,62.37
2022-09-07T13:45:36.675Z,62.21
2022-09-07T13:48:14.819Z,62.88
2022-09-07T13:50:52.384Z,66.49
2022-09-07T13:53:36.378Z,68.60
2022-09-07T13:56:41.402Z,70.26
2022-09-07T13:59:23.062Z,71.81
2022-09-07T14:01:51.555Z,73.83
2022-09-07T14:04:35.478Z,75.28
2022-09-07T14:07:02.988Z,76.91
2022-09-07T14:09:30.808Z,77.12
2022-09-07T14:11:58.741Z,77.39
2022-09-07T14:14:31.053Z,77.82
2022-09-07T14:17:02.044Z,78.40
2022-09-07T14:19:39.970Z,78.83
2022-09-07T14:22:22.315Z,79.14
2022-09-07T14:24:55.148Z,79.63
2022-09-07T14:27:33.069Z,79.92
2022-09-07T14:30:20.208Z,79.83
2022-09-07T14:32:53.166Z,79.90
2022-09-07T14:35:24.695Z,80.47
2022-09-07T14:37:53.316Z,80.28
2022-09-07T14:40:23.996Z,80.52
2022-09-07T14:42:54.138Z,80.68
2022-09-07T14:45:26.376Z,80.56
2022-09-07T14:47:55.635Z,80.12
2022-09-07T14:50:27.339Z,79.58
2022-09-07T14:55:46.434Z,79.27
2022-09-07T14:58:13.926Z,79.13
2022-09-07T15:00:45.994Z,78.93
2022-09-07T15:03:35.855Z,77.99
2022-09-07T15:06:03.801Z,78.39
2022-09-07T15:08:45.606Z,77.87
2022-09-07T15:11:39.983Z,77.84
2022-09-07T15:14:18.041Z,76.19
2022-09-07T15:19:50.473Z,74.12
2022-09-07T15:22:19.271Z,73.96
2022-09-07T15:24:48.132Z,72.85
2022-09-07T15:27:30.053Z,72.22
2022-09-07T15:29:57.629Z,72.01
2022-09-07T15:32:25.217Z,71.69
2022-09-07T15:34:52.851Z,71.62
2022-09-07T15:41:10.581Z,71.20
2022-09-07T15:43:34.144Z,71.77
2022-09-07T15:46:03.555Z,71.74
2022-09-07T15:48:31.354Z,71.84
2022-09-07T15:52:04.681Z,71.68
2022-09-07T15:57:47.696Z,71.99
2022-09-07T15:59:31.685Z,72.52
2022-09-07T16:01:59.793Z,72.42
2022-09-07T16:04:27.635Z,73.04
2022-09-07T16:06:55.280Z,73.05
2022-09-07T16:09:23.320Z,72.83
2022-09-07T16:11:51.297Z,73.39
2022-09-07T16:14:19.046Z,73.97
2022-09-07T16:19:36.060Z,74.00
2022-09-07T16:22:04.022Z,74.02
2022-09-07T16:24:31.694Z,74.36
2022-09-07T16:26:59.228Z,74.71
2022-09-07T16:29:26.789Z,74.94
2022-09-07T16:34:41.857Z,75.14
2022-09-07T16:37:09.363Z,75.25
2022-09-07T16:39:37.224Z,75.36
2022-09-07T16:42:05.052Z,74.82
2022-09-07T16:44:35.061Z,74.98
2022-09-07T16:47:04.434Z,75.30
2022-09-07T16:49:32.203Z,75.41
2022-09-07T16:51:59.849Z,75.33
2022-09-07T16:54:27.413Z,75.27
2022-09-07T16:56:54.924Z,75.97
2022-09-07T16:59:26.806Z,76.19
2022-09-07T17:01:54.458Z,76.07
2022-09-07T17:04:22.236Z,75.99
2022-09-07T17:06:52.049Z,75.81
2022-09-07T17:09:20.640Z,75.48
2022-09-07T17:11:48.209Z,75.58
2022-09-07T17:14:16.008Z,75.41
2022-09-07T17:16:44.230Z,75.54
2022-09-07T17:19:30.044Z,75.60
2022-09-07T17:21:59.812Z,75.64
2022-09-07T17:24:27.458Z,75.63
2022-09-07T17:26:55.095Z,75.89
2022-09-07T17:29:22.692Z,76.14
2022-09-07T17:34:37.792Z,76.18
2022-09-07T17:37:05.467Z,76.38
2022-09-07T17:39:33.043Z,76.28
2022-09-07T17:42:01.109Z,76.19
2022-09-07T17:44:33.301Z,76.54
2022-09-07T17:47:03.645Z,76.32
2022-09-07T17:49:31.317Z,76.81
2022-09-07T17:52:01.057Z,77.28
2022-09-07T17:54:29.043Z,77.67
2022-09-07T17:56:57.013Z,77.93
2022-09-07T18:02:13.964Z,78.28
2022-09-07T18:04:42.725Z,78.58
2022-09-07T18:07:10.571Z,78.79
2022-09-07T18:09:38.318Z,78.92
2022-09-07T18:12:06.447Z,78.80
2022-09-07T18:14:34.045Z,78.85
2022-09-07T18:17:01.908Z,78.59
2022-09-07T18:19:29.481Z,78.82
2022-09-07T18:21:57.013Z,79.00
2022-09-07T18:24:24.666Z,78.95
2022-09-07T18:26:53.930Z,79.01
2022-09-07T18:29:33.980Z,78.87
2022-09-07T18:32:07.497Z,79.31
2022-09-07T18:34:36.488Z,79.49
2022-09-07T18:37:04.706Z,79.42
2022-09-07T18:39:33.574Z,79.62
2022-09-07T18:42:01.501Z,79.68
2022-09-07T18:47:23.287Z,79.92
2022-09-07T18:49:55.543Z,80.09
2022-09-07T18:55:10.969Z,80.57
2022-09-07T18:57:38.634Z,80.62
2022-09-07T19:00:07.960Z,80.72
2022-09-07T19:02:35.877Z,81.21
2022-09-07T19:07:51.899Z,80.88
2022-09-07T19:10:19.504Z,80.77
2022-09-07T19:12:47.246Z,80.87
2022-09-07T19:15:15.026Z,81.08
2022-09-07T19:17:42.887Z,81.15
2022-09-07T19:20:10.724Z,81.20
2022-09-07T19:22:39.047Z,81.14
2022-09-07T19:25:06.770Z,81.01
2022-09-07T19:27:34.395Z,81.06
2022-09-07T19:30:01.992Z,80.97
2022-09-07T19:32:29.857Z,80.99
2022-09-07T19:34:57.418Z,81.03
2022-09-07T19:37:25.767Z,80.90
2022-09-07T19:39:56.959Z,80.96
2022-09-07T19:42:25.601Z,81.09
2022-09-07T19:44:54.212Z,81.00
2022-09-07T19:47:23.330Z,81.24
2022-09-07T19:49:52.314Z,81.24
2022-09-07T19:52:19.866Z,81.22
2022-09-07T19:54:47.423Z,81.30
2022-09-07T19:57:14.926Z,81.46
2022-09-07T19:59:42.489Z,81.54
2022-09-07T20:02:10.491Z,81.73
2022-09-07T20:04:38.161Z,81.79
2022-09-07T20:07:06.668Z,81.79
2022-09-07T20:09:34.196Z,81.99
2022-09-07T20:12:03.833Z,81.93
2022-09-07T20:14:31.361Z,81.93
2022-09-07T20:16:58.951Z,81.96
2022-09-07T20:19:26.587Z,82.13
2022-09-07T20:21:57.275Z,82.20
2022-09-07T20:24:25.273Z,82.41
2022-09-07T20:26:52.793Z,82.57
2022-09-07T20:29:28.921Z,82.46
2022-09-07T20:32:01.230Z,82.68
2022-09-07T20:34:29.239Z,82.89
2022-09-07T20:36:57.102Z,83.05
2022-09-07T20:39:24.827Z,83.04
2022-09-07T20:41:52.548Z,83.32
2022-09-07T20:44:20.234Z,83.35
2022-09-07T20:46:47.837Z,83.61
2022-09-07T20:49:15.461Z,83.65
2022-09-07T20:51:43.012Z,83.68
2022-09-07T20:54:10.801Z,83.83
2022-09-07T20:56:38.280Z,84.00
2022-09-07T20:59:06.892Z,84.14
2022-09-07T21:01:35.250Z,84.07
2022-09-07T21:04:04.095Z,84.21
2022-09-07T21:06:32.084Z,84.20
2022-09-07T21:09:00.092Z,84.11
2022-09-07T21:11:33.193Z,84.36
2022-09-07T21:14:00.750Z,84.42
2022-09-07T21:16:29.000Z,84.39
2022-09-07T21:18:58.330Z,84.29
2022-09-07T21:21:27.424Z,84.35
2022-09-07T21:23:56.936Z,84.44
2022-09-07T21:26:25.509Z,84.36
2022-09-07T21:28:58.604Z,84.56
2022-09-07T21:31:27.691Z,84.65
2022-09-07T21:33:57.199Z,84.54
2022-09-07T21:36:25.604Z,84.78
2022-09-07T21:38:54.348Z,84.68
2022-09-07T21:41:23.986Z,84.67
2022-09-07T21:43:59.142Z,84.82
2022-09-07T21:46:29.371Z,84.79
2022-09-07T21:48:58.360Z,84.78
2022-09-07T21:51:27.411Z,84.64
2022-09-07T21:53:56.751Z,84.73
2022-09-07T21:56:24.587Z,84.81
2022-09-07T21:58:56.615Z,84.85
2022-09-07T22:01:26.159Z,84.91
2022-09-07T22:03:59.691Z,85.06
2022-09-07T22:06:28.251Z,85.01
2022-09-07T22:08:56.086Z,85.10
2022-09-07T22:11:25.080Z,85.16
2022-09-07T22:13:57.623Z,85.39
2022-09-07T22:16:25.831Z,85.58
2022-09-07T22:18:53.747Z,85.48
2022-09-07T22:21:28.631Z,85.75
2022-09-07T22:24:01.848Z,86.05
2022-09-07T22:26:32.785Z,85.66
2022-09-07T22:29:00.453Z,85.72
2022-09-07T22:31:30.626Z,85.59
2022-09-07T22:34:00.091Z,85.81
2022-09-07T22:36:32.903Z,85.92
2022-09-07T22:39:03.923Z,85.82
2022-09-07T22:41:34.075Z,86.26
2022-09-07T22:44:01.830Z,86.30
2022-09-07T22:46:31.227Z,86.38
2022-09-07T22:48:59.321Z,86.39
2022-09-07T22:51:27.513Z,86.49
2022-09-07T22:53:56.050Z,86.64
2022-09-07T22:56:27.174Z,86.33
2022-09-07T22:58:57.607Z,86.57
2022-09-07T23:01:26.430Z,86.69
2022-09-07T23:03:54.552Z,86.85
2022-09-07T23:06:29.004Z,86.65
2022-09-07T23:08:58.749Z,86.80
2022-09-07T23:11:27.104Z,86.71
2022-09-07T23:13:57.083Z,86.83
2022-09-07T23:16:26.422Z,86.90
2022-09-07T23:18:55.524Z,86.73
2022-09-07T23:21:23.059Z,86.89
2022-09-07T23:23:52.644Z,87.05
2022-09-07T23:26:21.551Z,86.95
2022-09-07T23:28:53.362Z,87.04
2022-09-07T23:31:22.264Z,86.93
2022-09-07T23:33:50.214Z,86.89
2022-09-07T23:36:18.950Z,86.60
2022-09-07T23:38:46.834Z,86.87
2022-09-07T23:41:14.690Z,86.99
2022-09-07T23:43:42.697Z,86.69
2022-09-07T23:46:11.578Z,87.11
2022-09-07T23:48:39.529Z,87.19
2022-09-07T23:51:07.057Z,87.40
2022-09-07T23:53:35.072Z,87.23
2022-09-07T23:56:05.826Z,87.33
2022-09-07T23:58:33.559Z,87.28
